sensor_id;sensor_type;location;lat;lon;timestamp;P1;durP1;ratioP1;P2;durP2;ratioP2
20393;SDS011;10356;50.544;9.642;2022-10-17T00:02:26;6.67;;;3.70;;
20393;SDS011;10356;50.544;9.642;2022-10-17T00:04:52;7.60;;;4.00;;
20393;SDS011;10356;50.544;9.642;2022-10-17T00:07:19;10.27;;;4.10;;
20393;SDS011;10356;50.544;9.642;2022-10-17T00:09:45;10.67;;;4.80;;
20393;SDS011;10356;50.544;9.642;2022-10-17T00:12:12;10.63;;;4.70;;
20393;SDS011;10356;50.544;9.642;2022-10-17T00:14:38;8.23;;;5.47;;
20393;SDS011;10356;50.544;9.642;2022-10-17T00:17:06;8.65;;;5.43;;
20393;SDS011;10356;50.544;9.642;2022-10-17T00:19:32;8.10;;;5.97;;
20393;SDS011;10356;50.544;9.642;2022-10-17T00:21:59;8.67;;;6.33;;
20393;SDS011;10356;50.544;9.642;2022-10-17T00:24:25;14.63;;;7.33;;
20393;SDS011;10356;50.544;9.642;2022-10-17T00:26:52;12.80;;;7.00;;
20393;SDS011;10356;50.544;9.642;2022-10-17T00:29:18;15.20;;;8.23;;
20393;SDS011;10356;50.544;9.642;2022-10-17T00:31:45;13.18;;;6.95;;
20393;SDS011;10356;50.544;9.642;2022-10-17T00:34:12;12.82;;;8.30;;
20393;SDS011;10356;50.544;9.642;2022-10-17T00:36:39;12.80;;;7.90;;
20393;SDS011;10356;50.544;9.642;2022-10-17T00:39:05;14.67;;;7.40;;
20393;SDS011;10356;50.544;9.642;2022-10-17T00:41:32;14.30;;;7.60;;
20393;SDS011;10356;50.544;9.642;2022-10-17T00:44:00;15.23;;;6.80;;
20393;SDS011;10356;50.544;9.642;2022-10-17T00:46:30;10.50;;;6.40;;
20393;SDS011;10356;50.544;9.642;2022-10-17T00:48:59;12.13;;;7.60;;
20393;SDS011;10356;50.544;9.642;2022-10-17T00:51:31;16.65;;;8.48;;
20393;SDS011;10356;50.544;9.642;2022-10-17T00:54:02;12.50;;;7.00;;
20393;SDS011;10356;50.544;9.642;2022-10-17T00:56:30;10.38;;;8.07;;
20393;SDS011;10356;50.544;9.642;2022-10-17T00:58:57;10.17;;;7.57;;
20393;SDS011;10356;50.544;9.642;2022-10-17T01:01:24;14.77;;;8.05;;
20393;SDS011;10356;50.544;9.642;2022-10-17T01:03:51;18.30;;;8.38;;
20393;SDS011;10356;50.544;9.642;2022-10-17T01:06:17;13.00;;;7.95;;
20393;SDS011;10356;50.544;9.642;2022-10-17T01:08:45;14.98;;;7.20;;
20393;SDS011;10356;50.544;9.642;2022-10-17T01:11:19;13.77;;;7.32;;
20393;SDS011;10356;50.544;9.642;2022-10-17T01:13:54;10.17;;;5.50;;
20393;SDS011;10356;50.544;9.642;2022-10-17T01:16:27;9.73;;;5.00;;
20393;SDS011;10356;50.544;9.642;2022-10-17T01:19:06;5.07;;;4.05;;
20393;SDS011;10356;50.544;9.642;2022-10-17T01:21:55;5.72;;;4.05;;
20393;SDS011;10356;50.544;9.642;2022-10-17T01:24:32;15.18;;;5.15;;
20393;SDS011;10356;50.544;9.642;2022-10-17T01:33:27;20.83;;;6.07;;
20393;SDS011;10356;50.544;9.642;2022-10-17T01:36:04;15.38;;;5.18;;
20393;SDS011;10356;50.544;9.642;2022-10-17T01:38:35;7.27;;;5.27;;
20393;SDS011;10356;50.544;9.642;2022-10-17T01:41:09;10.88;;;6.15;;
20393;SDS011;10356;50.544;9.642;2022-10-17T01:43:43;7.38;;;5.47;;
20393;SDS011;10356;50.544;9.642;2022-10-17T01:46:19;11.27;;;6.70;;
20393;SDS011;10356;50.544;9.642;2022-10-17T01:48:50;12.52;;;7.00;;
20393;SDS011;10356;50.544;9.642;2022-10-17T01:51:19;9.88;;;6.40;;
20393;SDS011;10356;50.544;9.642;2022-10-17T01:53:51;16.43;;;5.57;;
20393;SDS011;10356;50.544;9.642;2022-10-17T01:56:22;15.55;;;5.97;;
20393;SDS011;10356;50.544;9.642;2022-10-17T01:58:52;17.27;;;6.65;;
20393;SDS011;10356;50.544;9.642;2022-10-17T02:01:23;10.55;;;6.30;;
20393;SDS011;10356;50.544;9.642;2022-10-17T02:03:53;10.60;;;5.28;;
20393;SDS011;10356;50.544;9.642;2022-10-17T02:06:22;11.70;;;5.43;;
20393;SDS011;10356;50.544;9.642;2022-10-17T02:08:50;8.57;;;4.25;;
20393;SDS011;10356;50.544;9.642;2022-10-17T02:11:17;6.07;;;3.67;;
20393;SDS011;10356;50.544;9.642;2022-10-17T02:14:00;8.57;;;4.47;;
20393;SDS011;10356;50.544;9.642;2022-10-17T02:16:39;7.32;;;3.92;;
20393;SDS011;10356;50.544;9.642;2022-10-17T02:19:16;7.88;;;4.38;;
20393;SDS011;10356;50.544;9.642;2022-10-17T02:22:00;10.73;;;5.47;;
20393;SDS011;10356;50.544;9.642;2022-10-17T02:24:36;4.93;;;4.30;;
20393;SDS011;10356;50.544;9.642;2022-10-17T02:27:11;7.20;;;3.80;;
20393;SDS011;10356;50.544;9.642;2022-10-17T02:29:43;5.00;;;3.60;;
20393;SDS011;10356;50.544;9.642;2022-10-17T02:32:15;6.82;;;3.83;;
20393;SDS011;10356;50.544;9.642;2022-10-17T02:34:46;8.82;;;3.55;;
20393;SDS011;10356;50.544;9.642;2022-10-17T02:37:16;4.67;;;4.07;;
20393;SDS011;10356;50.544;9.642;2022-10-17T02:39:46;6.00;;;3.87;;
20393;SDS011;10356;50.544;9.642;2022-10-17T02:42:15;11.03;;;4.80;;
20393;SDS011;10356;50.544;9.642;2022-10-17T02:44:43;8.40;;;3.87;;
20393;SDS011;10356;50.544;9.642;2022-10-17T02:47:12;5.38;;;3.70;;
20393;SDS011;10356;50.544;9.642;2022-10-17T02:49:46;8.50;;;3.73;;
20393;SDS011;10356;50.544;9.642;2022-10-17T02:52:16;7.63;;;3.80;;
20393;SDS011;10356;50.544;9.642;2022-10-17T02:54:50;10.63;;;4.20;;
20393;SDS011;10356;50.544;9.642;2022-10-17T02:57:21;5.23;;;3.50;;
20393;SDS011;10356;50.544;9.642;2022-10-17T02:59:52;10.30;;;4.63;;
20393;SDS011;10356;50.544;9.642;2022-10-17T03:02:22;9.60;;;4.37;;
20393;SDS011;10356;50.544;9.642;2022-10-17T03:04:48;4.97;;;3.47;;
20393;SDS011;10356;50.544;9.642;2022-10-17T03:07:15;5.97;;;3.63;;
20393;SDS011;10356;50.544;9.642;2022-10-17T03:09:41;14.00;;;5.33;;
20393;SDS011;10356;50.544;9.642;2022-10-17T03:12:08;5.00;;;3.73;;
20393;SDS011;10356;50.544;9.642;2022-10-17T03:14:34;8.93;;;4.60;;
20393;SDS011;10356;50.544;9.642;2022-10-17T03:17:01;6.43;;;4.10;;
20393;SDS011;10356;50.544;9.642;2022-10-17T03:19:28;6.37;;;4.07;;
20393;SDS011;10356;50.544;9.642;2022-10-17T03:21:55;5.37;;;4.00;;
20393;SDS011;10356;50.544;9.642;2022-10-17T03:24:21;11.07;;;3.87;;
20393;SDS011;10356;50.544;9.642;2022-10-17T03:26:48;9.27;;;3.92;;
20393;SDS011;10356;50.544;9.642;2022-10-17T03:29:14;7.20;;;4.03;;
20393;SDS011;10356;50.544;9.642;2022-10-17T03:31:41;9.27;;;4.27;;
20393;SDS011;10356;50.544;9.642;2022-10-17T03:34:07;8.03;;;4.67;;
20393;SDS011;10356;50.544;9.642;2022-10-17T03:36:35;10.73;;;4.17;;
20393;SDS011;10356;50.544;9.642;2022-10-17T03:39:01;7.90;;;3.93;;
20393;SDS011;10356;50.544;9.642;2022-10-17T03:41:28;8.03;;;5.07;;
20393;SDS011;10356;50.544;9.642;2022-10-17T03:43:55;10.73;;;5.60;;
20393;SDS011;10356;50.544;9.642;2022-10-17T03:46:21;9.40;;;5.50;;
20393;SDS011;10356;50.544;9.642;2022-10-17T03:48:47;9.77;;;6.40;;
20393;SDS011;10356;50.544;9.642;2022-10-17T03:51:14;7.53;;;6.17;;
20393;SDS011;10356;50.544;9.642;2022-10-17T03:53:42;12.43;;;7.23;;
20393;SDS011;10356;50.544;9.642;2022-10-17T03:56:09;10.45;;;7.55;;
20393;SDS011;10356;50.544;9.642;2022-10-17T03:58:36;15.43;;;8.20;;
20393;SDS011;10356;50.544;9.642;2022-10-17T04:01:04;13.57;;;8.40;;
20393;SDS011;10356;50.544;9.642;2022-10-17T04:03:31;22.00;;;10.03;;
20393;SDS011;10356;50.544;9.642;2022-10-17T04:05:57;16.43;;;9.40;;
20393;SDS011;10356;50.544;9.642;2022-10-17T04:08:24;16.52;;;9.82;;
20393;SDS011;10356;50.544;9.642;2022-10-17T04:10:56;20.37;;;9.63;;
20393;SDS011;10356;50.544;9.642;2022-10-17T04:13:23;12.13;;;8.35;;
20393;SDS011;10356;50.544;9.642;2022-10-17T04:15:53;14.37;;;8.80;;
20393;SDS011;10356;50.544;9.642;2022-10-17T04:18:20;18.07;;;9.37;;
20393;SDS011;10356;50.544;9.642;2022-10-17T04:20:47;14.23;;;8.43;;
20393;SDS011;10356;50.544;9.642;2022-10-17T04:23:13;13.27;;;8.23;;
20393;SDS011;10356;50.544;9.642;2022-10-17T04:25:40;17.83;;;8.73;;
20393;SDS011;10356;50.544;9.642;2022-10-17T04:28:08;15.63;;;8.30;;
20393;SDS011;10356;50.544;9.642;2022-10-17T04:30:34;14.48;;;7.90;;
20393;SDS011;10356;50.544;9.642;2022-10-17T04:33:01;13.45;;;8.13;;
20393;SDS011;10356;50.544;9.642;2022-10-17T04:35:27;13.70;;;9.27;;
20393;SDS011;10356;50.544;9.642;2022-10-17T04:37:54;15.52;;;8.48;;
20393;SDS011;10356;50.544;9.642;2022-10-17T04:40:20;16.23;;;8.57;;
20393;SDS011;10356;50.544;9.642;2022-10-17T04:42:47;12.80;;;8.25;;
20393;SDS011;10356;50.544;9.642;2022-10-17T04:45:15;16.40;;;10.50;;
20393;SDS011;10356;50.544;9.642;2022-10-17T04:47:42;13.15;;;8.27;;
20393;SDS011;10356;50.544;9.642;2022-10-17T04:50:08;15.50;;;9.18;;
20393;SDS011;10356;50.544;9.642;2022-10-17T04:52:35;15.90;;;9.30;;
20393;SDS011;10356;50.544;9.642;2022-10-17T04:55:02;11.47;;;7.33;;
20393;SDS011;10356;50.544;9.642;2022-10-17T04:57:28;18.15;;;8.40;;
20393;SDS011;10356;50.544;9.642;2022-10-17T04:59:55;10.35;;;7.22;;
20393;SDS011;10356;50.544;9.642;2022-10-17T05:02:23;14.85;;;7.47;;
20393;SDS011;10356;50.544;9.642;2022-10-17T05:04:49;12.02;;;7.13;;
20393;SDS011;10356;50.544;9.642;2022-10-17T05:07:16;13.63;;;7.60;;
20393;SDS011;10356;50.544;9.642;2022-10-17T05:09:42;11.55;;;8.32;;
20393;SDS011;10356;50.544;9.642;2022-10-17T05:12:09;14.55;;;8.00;;
20393;SDS011;10356;50.544;9.642;2022-10-17T05:14:35;12.40;;;7.47;;
20393;SDS011;10356;50.544;9.642;2022-10-17T05:17:02;12.32;;;8.07;;
20393;SDS011;10356;50.544;9.642;2022-10-17T05:19:29;14.30;;;7.80;;
20393;SDS011;10356;50.544;9.642;2022-10-17T05:21:56;16.15;;;9.27;;
20393;SDS011;10356;50.544;9.642;2022-10-17T05:24:22;14.00;;;9.30;;
20393;SDS011;10356;50.544;9.642;2022-10-17T05:26:49;11.77;;;7.78;;
20393;SDS011;10356;50.544;9.642;2022-10-17T05:29:16;17.70;;;7.88;;
20393;SDS011;10356;50.544;9.642;2022-10-17T05:31:42;11.35;;;7.47;;
20393;SDS011;10356;50.544;9.642;2022-10-17T05:34:09;12.13;;;8.47;;
20393;SDS011;10356;50.544;9.642;2022-10-17T05:36:37;22.02;;;13.55;;
20393;SDS011;10356;50.544;9.642;2022-10-17T05:39:03;32.90;;;25.70;;
20393;SDS011;10356;50.544;9.642;2022-10-17T05:41:30;22.70;;;16.65;;
20393;SDS011;10356;50.544;9.642;2022-10-17T05:43:56;18.10;;;9.63;;
20393;SDS011;10356;50.544;9.642;2022-10-17T05:46:22;13.90;;;8.32;;
20393;SDS011;10356;50.544;9.642;2022-10-17T05:48:49;11.10;;;7.50;;
20393;SDS011;10356;50.544;9.642;2022-10-17T05:51:16;11.67;;;6.10;;
20393;SDS011;10356;50.544;9.642;2022-10-17T05:53:44;11.07;;;7.00;;
20393;SDS011;10356;50.544;9.642;2022-10-17T05:56:10;11.20;;;7.35;;
20393;SDS011;10356;50.544;9.642;2022-10-17T05:58:39;16.93;;;7.23;;
20393;SDS011;10356;50.544;9.642;2022-10-17T06:01:06;17.27;;;8.60;;
20393;SDS011;10356;50.544;9.642;2022-10-17T06:03:33;12.60;;;7.53;;
20393;SDS011;10356;50.544;9.642;2022-10-17T06:06:02;12.65;;;7.03;;
20393;SDS011;10356;50.544;9.642;2022-10-17T06:08:29;10.45;;;6.60;;
20393;SDS011;10356;50.544;9.642;2022-10-17T06:10:57;16.77;;;7.90;;
20393;SDS011;10356;50.544;9.642;2022-10-17T06:13:23;14.18;;;8.00;;
20393;SDS011;10356;50.544;9.642;2022-10-17T06:15:50;12.73;;;7.15;;
20393;SDS011;10356;50.544;9.642;2022-10-17T06:18:16;13.60;;;8.10;;
20393;SDS011;10356;50.544;9.642;2022-10-17T06:20:43;10.32;;;8.48;;
20393;SDS011;10356;50.544;9.642;2022-10-17T06:23:09;9.73;;;7.75;;
20393;SDS011;10356;50.544;9.642;2022-10-17T06:25:36;15.15;;;7.55;;
20393;SDS011;10356;50.544;9.642;2022-10-17T06:28:04;9.75;;;7.32;;
20393;SDS011;10356;50.544;9.642;2022-10-17T06:30:30;10.43;;;7.27;;
20393;SDS011;10356;50.544;9.642;2022-10-17T06:32:57;15.50;;;8.38;;
20393;SDS011;10356;50.544;9.642;2022-10-17T06:35:23;13.93;;;7.93;;
20393;SDS011;10356;50.544;9.642;2022-10-17T06:37:50;12.25;;;8.55;;
20393;SDS011;10356;50.544;9.642;2022-10-17T06:40:16;13.95;;;7.63;;
20393;SDS011;10356;50.544;9.642;2022-10-17T06:42:43;14.32;;;9.02;;
20393;SDS011;10356;50.544;9.642;2022-10-17T06:45:11;13.02;;;8.48;;
20393;SDS011;10356;50.544;9.642;2022-10-17T06:47:37;13.80;;;7.72;;
20393;SDS011;10356;50.544;9.642;2022-10-17T06:50:04;21.27;;;8.98;;
20393;SDS011;10356;50.544;9.642;2022-10-17T06:52:31;11.40;;;7.93;;
20393;SDS011;10356;50.544;9.642;2022-10-17T06:54:58;10.32;;;8.02;;
20393;SDS011;10356;50.544;9.642;2022-10-17T06:57:24;10.80;;;7.72;;
20393;SDS011;10356;50.544;9.642;2022-10-17T06:59:51;8.57;;;7.22;;
20393;SDS011;10356;50.544;9.642;2022-10-17T07:02:19;12.50;;;7.78;;
20393;SDS011;10356;50.544;9.642;2022-10-17T07:04:47;12.82;;;7.78;;
20393;SDS011;10356;50.544;9.642;2022-10-17T07:07:14;13.82;;;9.18;;
20393;SDS011;10356;50.544;9.642;2022-10-17T07:09:40;17.55;;;8.98;;
20393;SDS011;10356;50.544;9.642;2022-10-17T07:12:07;13.85;;;8.43;;
20393;SDS011;10356;50.544;9.642;2022-10-17T07:14:33;15.32;;;8.63;;
20393;SDS011;10356;50.544;9.642;2022-10-17T07:17:00;14.35;;;8.77;;
20393;SDS011;10356;50.544;9.642;2022-10-17T07:19:28;10.50;;;7.85;;
20393;SDS011;10356;50.544;9.642;2022-10-17T07:21:55;11.02;;;8.05;;
20393;SDS011;10356;50.544;9.642;2022-10-17T07:24:21;12.38;;;8.05;;
20393;SDS011;10356;50.544;9.642;2022-10-17T07:26:47;9.30;;;7.82;;
20393;SDS011;10356;50.544;9.642;2022-10-17T07:29:14;11.80;;;8.00;;
20393;SDS011;10356;50.544;9.642;2022-10-17T07:31:41;11.57;;;7.85;;
20393;SDS011;10356;50.544;9.642;2022-10-17T07:34:09;9.88;;;6.82;;
20393;SDS011;10356;50.544;9.642;2022-10-17T07:36:37;9.52;;;7.07;;
20393;SDS011;10356;50.544;9.642;2022-10-17T07:39:03;11.93;;;7.00;;
20393;SDS011;10356;50.544;9.642;2022-10-17T07:41:30;9.55;;;5.55;;
20393;SDS011;10356;50.544;9.642;2022-10-17T07:43:56;8.52;;;5.63;;
20393;SDS011;10356;50.544;9.642;2022-10-17T07:46:23;8.65;;;5.25;;
20393;SDS011;10356;50.544;9.642;2022-10-17T07:48:49;10.10;;;5.53;;
20393;SDS011;10356;50.544;9.642;2022-10-17T07:51:16;13.82;;;5.63;;
20393;SDS011;10356;50.544;9.642;2022-10-17T07:53:45;7.82;;;4.93;;
20393;SDS011;10356;50.544;9.642;2022-10-17T07:56:11;8.77;;;4.80;;
20393;SDS011;10356;50.544;9.642;2022-10-17T07:58:38;6.43;;;4.32;;
20393;SDS011;10356;50.544;9.642;2022-10-17T08:01:06;4.22;;;3.83;;
20393;SDS011;10356;50.544;9.642;2022-10-17T08:03:35;11.70;;;3.97;;
20393;SDS011;10356;50.544;9.642;2022-10-17T08:06:02;6.05;;;4.13;;
20393;SDS011;10356;50.544;9.642;2022-10-17T08:08:28;9.52;;;4.60;;
20393;SDS011;10356;50.544;9.642;2022-10-17T08:11:00;7.00;;;4.03;;
20393;SDS011;10356;50.544;9.642;2022-10-17T08:13:27;6.07;;;3.75;;
20393;SDS011;10356;50.544;9.642;2022-10-17T08:15:57;9.30;;;4.47;;
20393;SDS011;10356;50.544;9.642;2022-10-17T08:18:24;6.65;;;3.75;;
20393;SDS011;10356;50.544;9.642;2022-10-17T08:20:51;6.05;;;3.80;;
20393;SDS011;10356;50.544;9.642;2022-10-17T08:23:17;3.50;;;3.20;;
20393;SDS011;10356;50.544;9.642;2022-10-17T08:25:43;4.57;;;3.25;;
20393;SDS011;10356;50.544;9.642;2022-10-17T08:28:11;6.30;;;3.40;;
20393;SDS011;10356;50.544;9.642;2022-10-17T08:30:38;5.55;;;3.55;;
20393;SDS011;10356;50.544;9.642;2022-10-17T08:33:04;5.35;;;3.95;;
20393;SDS011;10356;50.544;9.642;2022-10-17T08:35:31;4.88;;;3.00;;
20393;SDS011;10356;50.544;9.642;2022-10-17T08:37:57;5.80;;;3.17;;
20393;SDS011;10356;50.544;9.642;2022-10-17T08:40:25;6.00;;;3.00;;
20393;SDS011;10356;50.544;9.642;2022-10-17T08:45:53;5.05;;;2.90;;
20393;SDS011;10356;50.544;9.642;2022-10-17T08:48:24;9.48;;;3.28;;
20393;SDS011;10356;50.544;9.642;2022-10-17T08:50:54;7.40;;;3.47;;
20393;SDS011;10356;50.544;9.642;2022-10-17T08:53:24;4.32;;;3.13;;
20393;SDS011;10356;50.544;9.642;2022-10-17T08:55:56;5.68;;;2.88;;
20393;SDS011;10356;50.544;9.642;2022-10-17T08:58:27;8.65;;;3.33;;
20393;SDS011;10356;50.544;9.642;2022-10-17T09:01:02;6.25;;;2.75;;
20393;SDS011;10356;50.544;9.642;2022-10-17T09:03:38;6.75;;;2.90;;
20393;SDS011;10356;50.544;9.642;2022-10-17T09:06:16;7.95;;;2.88;;
20393;SDS011;10356;50.544;9.642;2022-10-17T09:08:51;4.43;;;2.40;;
20393;SDS011;10356;50.544;9.642;2022-10-17T09:11:38;5.68;;;2.97;;
20393;SDS011;10356;50.544;9.642;2022-10-17T09:14:20;7.75;;;2.80;;
20393;SDS011;10356;50.544;9.642;2022-10-17T09:17:02;3.33;;;2.78;;
20393;SDS011;10356;50.544;9.642;2022-10-17T09:19:38;6.38;;;2.28;;
20393;SDS011;10356;50.544;9.642;2022-10-17T09:22:08;4.03;;;2.35;;
20393;SDS011;10356;50.544;9.642;2022-10-17T09:24:40;2.75;;;2.40;;
20393;SDS011;10356;50.544;9.642;2022-10-17T09:27:14;5.32;;;2.63;;
20393;SDS011;10356;50.544;9.642;2022-10-17T09:29:49;6.10;;;2.50;;
20393;SDS011;10356;50.544;9.642;2022-10-17T09:32:20;5.97;;;2.13;;
20393;SDS011;10356;50.544;9.642;2022-10-17T09:34:50;5.47;;;2.15;;
20393;SDS011;10356;50.544;9.642;2022-10-17T09:37:17;3.03;;;2.33;;
20393;SDS011;10356;50.544;9.642;2022-10-17T09:39:45;5.63;;;2.47;;
20393;SDS011;10356;50.544;9.642;2022-10-17T09:42:12;4.43;;;2.03;;
20393;SDS011;10356;50.544;9.642;2022-10-17T09:44:41;5.75;;;2.15;;
20393;SDS011;10356;50.544;9.642;2022-10-17T09:47:21;8.00;;;2.20;;
20393;SDS011;10356;50.544;9.642;2022-10-17T09:49:52;5.78;;;2.10;;
20393;SDS011;10356;50.544;9.642;2022-10-17T09:52:20;4.82;;;1.98;;
20393;SDS011;10356;50.544;9.642;2022-10-17T09:54:51;3.65;;;2.10;;
20393;SDS011;10356;50.544;9.642;2022-10-17T09:57:21;3.58;;;1.60;;
20393;SDS011;10356;50.544;9.642;2022-10-17T09:59:55;8.38;;;1.90;;
20393;SDS011;10356;50.544;9.642;2022-10-17T10:02:25;3.70;;;2.08;;
20393;SDS011;10356;50.544;9.642;2022-10-17T10:05:02;9.27;;;2.30;;
20393;SDS011;10356;50.544;9.642;2022-10-17T10:07:30;4.35;;;1.77;;
20393;SDS011;10356;50.544;9.642;2022-10-17T10:09:59;5.90;;;1.83;;
20393;SDS011;10356;50.544;9.642;2022-10-17T10:12:27;6.63;;;1.77;;
20393;SDS011;10356;50.544;9.642;2022-10-17T10:14:55;5.25;;;1.77;;
20393;SDS011;10356;50.544;9.642;2022-10-17T10:20:24;3.95;;;1.70;;
20393;SDS011;10356;50.544;9.642;2022-10-17T10:23:03;5.85;;;1.63;;
20393;SDS011;10356;50.544;9.642;2022-10-17T10:25:36;2.42;;;1.92;;
20393;SDS011;10356;50.544;9.642;2022-10-17T10:28:08;2.92;;;1.42;;
20393;SDS011;10356;50.544;9.642;2022-10-17T10:30:35;4.47;;;1.60;;
20393;SDS011;10356;50.544;9.642;2022-10-17T10:33:03;4.38;;;1.60;;
20393;SDS011;10356;50.544;9.642;2022-10-17T10:35:31;7.15;;;2.53;;
20393;SDS011;10356;50.544;9.642;2022-10-17T10:38:00;7.03;;;1.90;;
20393;SDS011;10356;50.544;9.642;2022-10-17T10:40:29;3.53;;;1.60;;
20393;SDS011;10356;50.544;9.642;2022-10-17T10:42:59;5.68;;;1.70;;
20393;SDS011;10356;50.544;9.642;2022-10-17T10:45:28;3.78;;;1.60;;
20393;SDS011;10356;50.544;9.642;2022-10-17T10:48:12;2.72;;;1.52;;
20393;SDS011;10356;50.544;9.642;2022-10-17T10:50:45;1.98;;;1.73;;
20393;SDS011;10356;50.544;9.642;2022-10-17T10:53:19;3.50;;;1.75;;
20393;SDS011;10356;50.544;9.642;2022-10-17T10:55:55;6.95;;;1.77;;
20393;SDS011;10356;50.544;9.642;2022-10-17T10:58:26;6.30;;;1.90;;
20393;SDS011;10356;50.544;9.642;2022-10-17T11:01:02;5.30;;;2.13;;
20393;SDS011;10356;50.544;9.642;2022-10-17T11:03:32;4.50;;;1.83;;
20393;SDS011;10356;50.544;9.642;2022-10-17T11:06:03;3.63;;;1.60;;
20393;SDS011;10356;50.544;9.642;2022-10-17T11:08:37;3.42;;;1.55;;
20393;SDS011;10356;50.544;9.642;2022-10-17T11:11:11;4.53;;;1.50;;
20393;SDS011;10356;50.544;9.642;2022-10-17T11:13:44;4.20;;;1.90;;
20393;SDS011;10356;50.544;9.642;2022-10-17T11:16:19;4.05;;;1.55;;
20393;SDS011;10356;50.544;9.642;2022-10-17T11:18:56;4.10;;;1.65;;
20393;SDS011;10356;50.544;9.642;2022-10-17T11:21:31;3.15;;;1.60;;
20393;SDS011;10356;50.544;9.642;2022-10-17T11:24:06;6.28;;;1.67;;
20393;SDS011;10356;50.544;9.642;2022-10-17T11:26:40;4.57;;;1.70;;
20393;SDS011;10356;50.544;9.642;2022-10-17T11:29:10;4.32;;;1.70;;
20393;SDS011;10356;50.544;9.642;2022-10-17T11:31:38;3.10;;;1.40;;
20393;SDS011;10356;50.544;9.642;2022-10-17T11:34:10;4.20;;;2.10;;
20393;SDS011;10356;50.544;9.642;2022-10-17T11:36:44;7.15;;;1.83;;
20393;SDS011;10356;50.544;9.642;2022-10-17T11:39:15;9.93;;;1.77;;
20393;SDS011;10356;50.544;9.642;2022-10-17T11:41:45;4.15;;;1.60;;
20393;SDS011;10356;50.544;9.642;2022-10-17T11:44:17;3.78;;;2.00;;
20393;SDS011;10356;50.544;9.642;2022-10-17T11:46:47;3.40;;;1.50;;
20393;SDS011;10356;50.544;9.642;2022-10-17T11:49:20;4.63;;;1.65;;
20393;SDS011;10356;50.544;9.642;2022-10-17T11:51:51;4.07;;;1.42;;
20393;SDS011;10356;50.544;9.642;2022-10-17T11:54:21;5.35;;;1.52;;
20393;SDS011;10356;50.544;9.642;2022-10-17T11:56:52;4.95;;;1.85;;
20393;SDS011;10356;50.544;9.642;2022-10-17T11:59:43;3.38;;;1.48;;
20393;SDS011;10356;50.544;9.642;2022-10-17T12:02:21;4.90;;;1.83;;
20393;SDS011;10356;50.544;9.642;2022-10-17T12:04:59;4.53;;;1.40;;
20393;SDS011;10356;50.544;9.642;2022-10-17T12:07:34;3.35;;;1.73;;
20393;SDS011;10356;50.544;9.642;2022-10-17T12:10:12;2.75;;;1.52;;
20393;SDS011;10356;50.544;9.642;2022-10-17T12:12:47;3.80;;;1.60;;
20393;SDS011;10356;50.544;9.642;2022-10-17T12:15:27;6.65;;;1.42;;
20393;SDS011;10356;50.544;9.642;2022-10-17T12:17:55;5.60;;;1.75;;
20393;SDS011;10356;50.544;9.642;2022-10-17T12:20:27;4.35;;;2.00;;
20393;SDS011;10356;50.544;9.642;2022-10-17T12:22:59;3.40;;;1.67;;
20393;SDS011;10356;50.544;9.642;2022-10-17T12:25:32;3.58;;;1.95;;
20393;SDS011;10356;50.544;9.642;2022-10-17T12:28:10;9.10;;;2.00;;
20393;SDS011;10356;50.544;9.642;2022-10-17T12:30:48;5.68;;;1.90;;
20393;SDS011;10356;50.544;9.642;2022-10-17T12:33:17;5.57;;;1.77;;
20393;SDS011;10356;50.544;9.642;2022-10-17T12:35:48;5.97;;;1.63;;
20393;SDS011;10356;50.544;9.642;2022-10-17T12:38:20;8.38;;;1.90;;
20393;SDS011;10356;50.544;9.642;2022-10-17T12:40:52;5.05;;;1.73;;
20393;SDS011;10356;50.544;9.642;2022-10-17T12:49:21;7.05;;;1.83;;
20393;SDS011;10356;50.544;9.642;2022-10-17T12:55:09;3.67;;;2.08;;
20393;SDS011;10356;50.544;9.642;2022-10-17T12:57:43;6.43;;;1.77;;
20393;SDS011;10356;50.544;9.642;2022-10-17T13:00:17;7.80;;;4.85;;
20393;SDS011;10356;50.544;9.642;2022-10-17T13:02:46;5.47;;;2.00;;
20393;SDS011;10356;50.544;9.642;2022-10-17T13:05:15;12.60;;;8.45;;
20393;SDS011;10356;50.544;9.642;2022-10-17T13:07:47;4.57;;;1.95;;
20393;SDS011;10356;50.544;9.642;2022-10-17T13:10:19;5.45;;;1.90;;
20393;SDS011;10356;50.544;9.642;2022-10-17T13:12:47;9.55;;;2.22;;
20393;SDS011;10356;50.544;9.642;2022-10-17T13:15:16;5.05;;;2.00;;
20393;SDS011;10356;50.544;9.642;2022-10-17T13:17:44;7.53;;;1.80;;
20393;SDS011;10356;50.544;9.642;2022-10-17T13:20:20;6.15;;;1.90;;
20393;SDS011;10356;50.544;9.642;2022-10-17T13:22:49;6.22;;;1.77;;
20393;SDS011;10356;50.544;9.642;2022-10-17T13:25:17;4.18;;;2.08;;
20393;SDS011;10356;50.544;9.642;2022-10-17T13:27:46;5.53;;;1.92;;
20393;SDS011;10356;50.544;9.642;2022-10-17T13:30:21;4.40;;;1.77;;
20393;SDS011;10356;50.544;9.642;2022-10-17T13:32:49;5.65;;;1.48;;
20393;SDS011;10356;50.544;9.642;2022-10-17T13:35:21;4.05;;;1.98;;
20393;SDS011;10356;50.544;9.642;2022-10-17T13:37:49;3.95;;;1.63;;
20393;SDS011;10356;50.544;9.642;2022-10-17T13:40:20;3.25;;;1.70;;
20393;SDS011;10356;50.544;9.642;2022-10-17T13:42:49;3.10;;;1.77;;
20393;SDS011;10356;50.544;9.642;2022-10-17T13:45:18;10.05;;;2.10;;
20393;SDS011;10356;50.544;9.642;2022-10-17T13:47:52;3.55;;;2.00;;
20393;SDS011;10356;50.544;9.642;2022-10-17T13:50:30;5.20;;;2.00;;
20393;SDS011;10356;50.544;9.642;2022-10-17T13:53:16;2.50;;;1.60;;
20393;SDS011;10356;50.544;9.642;2022-10-17T13:55:53;2.88;;;1.63;;
20393;SDS011;10356;50.544;9.642;2022-10-17T13:58:22;4.10;;;1.70;;
20393;SDS011;10356;50.544;9.642;2022-10-17T14:00:48;5.72;;;2.10;;
20393;SDS011;10356;50.544;9.642;2022-10-17T14:03:17;3.35;;;1.70;;
20393;SDS011;10356;50.544;9.642;2022-10-17T14:05:57;5.10;;;1.77;;
20393;SDS011;10356;50.544;9.642;2022-10-17T14:08:26;5.50;;;1.90;;
20393;SDS011;10356;50.544;9.642;2022-10-17T14:10:55;4.22;;;2.08;;
20393;SDS011;10356;50.544;9.642;2022-10-17T14:13:22;5.88;;;2.08;;
20393;SDS011;10356;50.544;9.642;2022-10-17T14:15:51;4.75;;;2.10;;
20393;SDS011;10356;50.544;9.642;2022-10-17T14:18:19;7.05;;;1.92;;
20393;SDS011;10356;50.544;9.642;2022-10-17T14:20:49;5.55;;;1.80;;
20393;SDS011;10356;50.544;9.642;2022-10-17T14:26:10;6.30;;;2.20;;
20393;SDS011;10356;50.544;9.642;2022-10-17T14:28:40;3.05;;;1.85;;
20393;SDS011;10356;50.544;9.642;2022-10-17T14:31:10;4.68;;;2.35;;
20393;SDS011;10356;50.544;9.642;2022-10-17T14:33:43;4.18;;;2.10;;
20393;SDS011;10356;50.544;9.642;2022-10-17T14:36:11;9.13;;;1.98;;
20393;SDS011;10356;50.544;9.642;2022-10-17T14:38:43;3.42;;;1.90;;
20393;SDS011;10356;50.544;9.642;2022-10-17T14:41:14;5.38;;;1.92;;
20393;SDS011;10356;50.544;9.642;2022-10-17T14:43:52;6.50;;;2.40;;
20393;SDS011;10356;50.544;9.642;2022-10-17T14:46:20;5.45;;;2.30;;
20393;SDS011;10356;50.544;9.642;2022-10-17T14:48:50;5.07;;;2.30;;
20393;SDS011;10356;50.544;9.642;2022-10-17T14:51:18;4.85;;;2.22;;
20393;SDS011;10356;50.544;9.642;2022-10-17T14:53:57;11.15;;;2.47;;
20393;SDS011;10356;50.544;9.642;2022-10-17T14:56:32;4.78;;;2.35;;
20393;SDS011;10356;50.544;9.642;2022-10-17T14:59:00;6.38;;;2.65;;
20393;SDS011;10356;50.544;9.642;2022-10-17T15:01:29;7.25;;;2.33;;
20393;SDS011;10356;50.544;9.642;2022-10-17T15:03:56;3.75;;;1.98;;
20393;SDS011;10356;50.544;9.642;2022-10-17T15:06:26;4.82;;;2.38;;
20393;SDS011;10356;50.544;9.642;2022-10-17T15:08:53;7.25;;;2.70;;
20393;SDS011;10356;50.544;9.642;2022-10-17T15:11:19;6.28;;;2.78;;
20393;SDS011;10356;50.544;9.642;2022-10-17T15:13:47;5.88;;;2.88;;
20393;SDS011;10356;50.544;9.642;2022-10-17T15:16:14;4.97;;;3.10;;
20393;SDS011;10356;50.544;9.642;2022-10-17T15:18:43;8.50;;;2.95;;
20393;SDS011;10356;50.544;9.642;2022-10-17T15:21:10;8.85;;;3.78;;
20393;SDS011;10356;50.544;9.642;2022-10-17T15:23:37;8.68;;;3.10;;